createdAt,value
2023-04-26T00:02:01.129Z,0.40
2023-04-26T00:04:29.550Z,0.28
2023-04-26T00:06:57.302Z,0.35
2023-04-26T00:09:24.402Z,0.63
2023-04-26T00:11:51.550Z,0.30
2023-04-26T00:14:18.730Z,0.30
2023-04-26T00:16:45.908Z,0.50
2023-04-26T00:19:13.668Z,0.22
2023-04-26T00:21:41.071Z,0.30
2023-04-26T00:24:08.755Z,0.55
2023-04-26T00:26:36.189Z,0.20
2023-04-26T00:29:05.363Z,0.30
2023-04-26T00:31:32.658Z,0.20
2023-04-26T00:33:59.772Z,0.28
2023-04-26T00:36:26.912Z,0.40
2023-04-26T00:38:54.188Z,0.30
2023-04-26T00:41:22.723Z,0.38
2023-04-26T00:43:49.931Z,0.30
2023-04-26T00:46:17.513Z,0.40
2023-04-26T00:48:44.856Z,1.33
2023-04-26T00:51:13.124Z,1.85
2023-04-26T00:53:41.745Z,0.22
2023-04-26T00:56:11.256Z,1.17
2023-04-26T00:58:38.796Z,0.38
2023-04-26T01:01:06.073Z,0.20
2023-04-26T01:03:33.444Z,0.20
2023-04-26T01:06:00.645Z,0.20
2023-04-26T01:08:27.906Z,0.25
2023-04-26T01:10:55.294Z,0.20
2023-04-26T01:13:22.896Z,1.00
2023-04-26T01:15:50.056Z,0.20
2023-04-26T01:18:17.129Z,0.30
2023-04-26T01:20:44.284Z,0.30
2023-04-26T01:23:11.941Z,0.22
2023-04-26T01:25:39.303Z,0.20
2023-04-26T01:28:06.461Z,0.47
2023-04-26T01:30:33.532Z,0.63
2023-04-26T01:33:01.222Z,0.30
2023-04-26T01:35:28.844Z,0.30
2023-04-26T01:37:55.861Z,0.60
2023-04-26T01:40:22.938Z,0.47
2023-04-26T01:42:50.007Z,0.10
2023-04-26T01:45:17.679Z,0.30
2023-04-26T01:47:45.056Z,0.30
2023-04-26T01:50:12.456Z,1.35
2023-04-26T01:52:39.534Z,0.20
2023-04-26T01:55:07.557Z,0.30
2023-04-26T01:57:34.627Z,0.13
2023-04-26T02:00:02.720Z,0.32
2023-04-26T02:02:29.844Z,0.50
2023-04-26T02:04:57.142Z,0.30
2023-04-26T02:07:24.325Z,0.30
2023-04-26T02:09:51.701Z,0.30
2023-04-26T02:12:18.964Z,0.13
2023-04-26T02:14:46.016Z,0.40
2023-04-26T02:17:14.156Z,0.10
2023-04-26T02:19:41.283Z,0.30
2023-04-26T02:22:08.352Z,0.20
2023-04-26T02:24:35.423Z,0.30
2023-04-26T02:27:04.229Z,0.10
2023-04-26T02:29:43.816Z,0.25
2023-04-26T02:32:13.042Z,0.30
2023-04-26T02:34:40.207Z,0.20
2023-04-26T02:37:07.806Z,0.10
2023-04-26T02:39:35.019Z,0.38
2023-04-26T02:42:02.230Z,0.25
2023-04-26T02:44:32.364Z,0.22
2023-04-26T02:46:59.481Z,0.32
2023-04-26T02:49:26.587Z,0.25
2023-04-26T02:51:53.818Z,0.40
2023-04-26T02:54:20.905Z,0.75
2023-04-26T02:56:47.984Z,0.15
2023-04-26T02:59:15.110Z,0.40
2023-04-26T03:01:42.224Z,0.30
2023-04-26T03:04:09.561Z,0.82
2023-04-26T03:06:38.094Z,0.10
2023-04-26T03:09:05.959Z,0.30
2023-04-26T03:11:33.159Z,0.30
2023-04-26T03:14:00.296Z,0.25
2023-04-26T03:16:28.701Z,0.28
2023-04-26T03:18:55.877Z,0.60
2023-04-26T03:21:22.980Z,0.20
2023-04-26T03:23:50.073Z,0.40
2023-04-26T03:26:17.171Z,0.20
2023-04-26T03:28:44.280Z,0.30
2023-04-26T03:31:11.852Z,0.20
2023-04-26T03:33:38.912Z,1.75
2023-04-26T03:36:06.943Z,0.68
2023-04-26T03:38:34.106Z,0.30
2023-04-26T03:41:04.571Z,0.47
2023-04-26T03:43:32.398Z,0.60
2023-04-26T03:45:59.939Z,0.35
2023-04-26T03:48:27.437Z,0.32
2023-04-26T03:50:54.475Z,0.30
2023-04-26T03:53:21.590Z,0.38
2023-04-26T03:55:48.830Z,1.15
2023-04-26T03:58:16.029Z,0.40
2023-04-26T04:00:43.715Z,0.10
2023-04-26T04:03:11.463Z,0.20
2023-04-26T04:05:38.950Z,0.40
2023-04-26T04:08:06.148Z,0.30
2023-04-26T04:10:33.394Z,0.30
2023-04-26T04:13:00.463Z,0.30
2023-04-26T04:15:27.562Z,0.25
2023-04-26T04:17:54.690Z,0.30
2023-04-26T04:20:21.888Z,0.43
2023-04-26T04:22:49.000Z,0.35
2023-04-26T04:25:16.567Z,0.20
2023-04-26T04:27:43.728Z,0.77
2023-04-26T04:30:12.291Z,0.32
2023-04-26T04:32:40.417Z,0.50
2023-04-26T04:35:07.949Z,0.95
2023-04-26T04:37:35.120Z,0.30
2023-04-26T04:40:02.281Z,0.40
2023-04-26T04:42:29.437Z,0.28
2023-04-26T04:44:57.234Z,0.30
2023-04-26T04:47:24.852Z,0.60
2023-04-26T04:49:52.025Z,0.43
2023-04-26T04:52:21.569Z,1.83
2023-04-26T04:54:48.991Z,0.40
2023-04-26T04:57:16.953Z,0.30
2023-04-26T04:59:44.131Z,0.50
2023-04-26T05:02:11.379Z,0.50
2023-04-26T05:04:38.712Z,0.32
2023-04-26T05:07:06.923Z,0.40
2023-04-26T05:09:34.255Z,0.40
2023-04-26T05:12:01.734Z,0.75
2023-04-26T05:14:30.290Z,0.40
2023-04-26T05:16:57.762Z,0.40
2023-04-26T05:19:25.103Z,0.43
2023-04-26T05:21:52.947Z,2.28
2023-04-26T05:24:20.772Z,1.50
2023-04-26T05:26:47.930Z,1.67
2023-04-26T05:29:15.041Z,1.90
2023-04-26T05:31:42.332Z,1.48
2023-04-26T05:34:09.435Z,1.05
2023-04-26T05:36:37.041Z,1.98
2023-04-26T05:39:05.974Z,1.88
2023-04-26T05:41:33.110Z,0.45
2023-04-26T05:44:00.210Z,1.15
2023-04-26T05:46:27.552Z,1.00
2023-04-26T05:48:55.500Z,1.23
2023-04-26T05:51:22.589Z,0.75
2023-04-26T05:53:49.977Z,0.77
2023-04-26T05:56:17.445Z,0.70
2023-04-26T05:58:44.597Z,0.80
2023-04-26T06:01:12.563Z,2.28
2023-04-26T06:03:39.902Z,1.80
2023-04-26T06:06:08.140Z,1.27
2023-04-26T06:08:35.635Z,0.73
2023-04-26T06:11:03.757Z,1.65
2023-04-26T06:13:31.309Z,3.05
2023-04-26T06:15:59.785Z,4.78
2023-04-26T06:18:26.935Z,0.95
2023-04-26T06:20:54.046Z,2.05
2023-04-26T06:23:21.518Z,2.05
2023-04-26T06:25:48.762Z,3.33
2023-04-26T06:28:16.052Z,3.65
2023-04-26T06:30:43.636Z,3.45
2023-04-26T06:33:10.871Z,3.30
2023-04-26T06:35:42.051Z,3.03
2023-04-26T06:38:09.460Z,2.25
2023-04-26T06:40:39.915Z,2.78
2023-04-26T06:43:06.989Z,41.22
2023-04-26T06:45:34.193Z,3.40
2023-04-26T06:48:02.261Z,1.90
2023-04-26T06:50:29.754Z,4.00
2023-04-26T06:52:56.918Z,4.38
2023-04-26T06:55:24.247Z,2.88
2023-04-26T06:57:51.936Z,4.07
2023-04-26T07:00:19.370Z,7.45
2023-04-26T07:02:46.604Z,6.18
2023-04-26T07:05:15.649Z,19.13
2023-04-26T07:07:43.024Z,5.00
2023-04-26T07:10:11.450Z,5.07
2023-04-26T07:12:39.097Z,4.22
2023-04-26T07:15:09.757Z,10.38
2023-04-26T07:17:37.112Z,4.25
2023-04-26T07:20:04.688Z,11.20
2023-04-26T07:22:31.840Z,4.75
2023-04-26T07:24:58.967Z,10.07
2023-04-26T07:27:26.328Z,2.50
2023-04-26T07:29:56.462Z,6.85
2023-04-26T07:32:24.457Z,3.38
2023-04-26T07:34:51.843Z,6.88
2023-04-26T07:37:19.096Z,5.45
2023-04-26T07:39:46.251Z,5.28
2023-04-26T07:42:13.427Z,7.22
2023-04-26T07:44:40.875Z,8.27
2023-04-26T07:47:14.841Z,2.67
2023-04-26T07:49:42.307Z,2.22
2023-04-26T07:52:09.900Z,5.68
2023-04-26T07:54:37.349Z,8.65
2023-04-26T07:57:04.564Z,11.77
2023-04-26T07:59:32.371Z,8.23
2023-04-26T08:01:59.512Z,17.30
2023-04-26T08:04:34.661Z,16.27
2023-04-26T08:07:02.681Z,17.00
2023-04-26T08:09:31.042Z,14.95
2023-04-26T08:11:58.486Z,24.33
2023-04-26T08:14:25.951Z,21.88
2023-04-26T08:16:54.182Z,15.65
2023-04-26T08:19:21.814Z,12.25
2023-04-26T08:21:49.025Z,14.43
2023-04-26T08:24:16.151Z,7.60
2023-04-26T08:26:43.296Z,9.38
2023-04-26T08:29:11.727Z,10.45
2023-04-26T08:31:38.939Z,10.00
2023-04-26T08:34:06.557Z,8.30
2023-04-26T08:36:37.739Z,8.38
2023-04-26T08:39:05.210Z,12.23
2023-04-26T08:41:37.062Z,13.48
2023-04-26T08:44:08.548Z,17.33
2023-04-26T08:46:48.023Z,11.43
2023-04-26T08:49:41.817Z,14.73
2023-04-26T08:52:12.153Z,12.77
2023-04-26T08:54:40.479Z,10.38
2023-04-26T08:57:08.614Z,14.93
2023-04-26T08:59:39.882Z,10.02
2023-04-26T09:02:08.146Z,15.88
2023-04-26T09:04:36.483Z,9.82
2023-04-26T09:07:07.395Z,23.75
2023-04-26T09:09:38.564Z,7.70
2023-04-26T09:12:05.947Z,13.07
2023-04-26T09:14:33.151Z,10.18
2023-04-26T09:17:00.488Z,17.30
2023-04-26T09:19:44.198Z,10.95
2023-04-26T09:22:11.899Z,11.23
2023-04-26T09:24:50.630Z,11.30
2023-04-26T09:27:18.693Z,8.30
2023-04-26T09:30:06.111Z,5.07
2023-04-26T09:32:54.592Z,7.57
2023-04-26T09:35:35.860Z,5.78
2023-04-26T09:38:11.132Z,10.98
2023-04-26T09:40:46.667Z,11.10
2023-04-26T09:43:21.638Z,10.90
2023-04-26T09:45:59.271Z,12.23
2023-04-26T09:48:32.295Z,12.68
2023-04-26T09:51:11.534Z,5.82
2023-04-26T09:53:46.594Z,9.27
2023-04-26T09:56:17.702Z,7.50
2023-04-26T09:58:59.319Z,7.18
2023-04-26T10:01:29.751Z,4.55
2023-04-26T10:04:04.897Z,4.85
2023-04-26T10:06:33.147Z,3.35
2023-04-26T10:09:02.098Z,5.05
2023-04-26T10:11:29.827Z,7.43
2023-04-26T10:13:57.082Z,5.05
2023-04-26T10:16:24.662Z,5.03
2023-04-26T10:18:52.667Z,3.65
2023-04-26T10:21:35.661Z,7.72
2023-04-26T10:24:03.398Z,3.42
2023-04-26T10:26:54.967Z,2.60
2023-04-26T10:29:23.577Z,2.83
2023-04-26T10:32:07.314Z,2.42
2023-04-26T10:34:36.380Z,5.80
2023-04-26T10:37:15.234Z,3.30
2023-04-26T10:39:44.105Z,2.08
2023-04-26T10:42:25.515Z,4.03
2023-04-26T10:44:58.812Z,4.90
2023-04-26T10:47:32.606Z,3.75
2023-04-26T10:50:06.220Z,2.60
2023-04-26T10:52:35.934Z,3.25
2023-04-26T10:55:03.267Z,6.57
2023-04-26T10:57:51.096Z,7.10
2023-04-26T11:00:31.934Z,3.30
2023-04-26T11:03:04.821Z,2.45
2023-04-26T11:05:44.856Z,3.58
2023-04-26T11:08:21.006Z,3.45
2023-04-26T11:11:09.005Z,14.02
2023-04-26T11:13:42.171Z,16.63
2023-04-26T11:16:14.599Z,14.63
2023-04-26T11:18:44.000Z,15.32
2023-04-26T11:21:19.734Z,9.07
2023-04-26T11:23:55.279Z,5.57
2023-04-26T11:26:22.934Z,10.65
2023-04-26T11:28:50.243Z,5.60
2023-04-26T11:31:19.599Z,10.05
2023-04-26T11:33:49.924Z,4.87
2023-04-26T11:36:19.907Z,9.70
2023-04-26T11:38:47.376Z,8.67
2023-04-26T11:41:17.778Z,7.18
2023-04-26T11:43:44.994Z,17.75
2023-04-26T11:46:12.270Z,12.55
2023-04-26T11:48:39.911Z,6.30
2023-04-26T11:51:09.484Z,7.13
2023-04-26T11:53:42.101Z,5.90
2023-04-26T11:56:17.252Z,15.65
2023-04-26T11:58:48.913Z,11.25
2023-04-26T12:01:23.995Z,6.72
2023-04-26T12:03:53.955Z,9.52
2023-04-26T12:06:27.071Z,5.38
2023-04-26T12:08:54.265Z,7.32
2023-04-26T12:11:21.392Z,6.68
2023-04-26T12:13:48.763Z,3.00
2023-04-26T12:16:25.564Z,4.68
2023-04-26T12:18:54.764Z,1.70
2023-04-26T12:21:22.166Z,3.22
2023-04-26T12:23:49.419Z,2.15
2023-04-26T12:26:17.081Z,1.75
2023-04-26T12:28:44.370Z,15.20
2023-04-26T12:31:11.486Z,4.20
2023-04-26T12:33:38.771Z,4.85
2023-04-26T12:36:13.213Z,6.97
2023-04-26T12:38:40.752Z,7.22
2023-04-26T12:41:08.003Z,3.72
2023-04-26T12:43:35.065Z,5.10
2023-04-26T12:46:02.309Z,3.33
2023-04-26T12:48:30.089Z,2.85
2023-04-26T12:50:57.224Z,2.85
2023-04-26T12:53:24.411Z,1.45
2023-04-26T12:55:51.793Z,1.85
2023-04-26T12:58:19.809Z,7.55
2023-04-26T13:00:46.872Z,3.15
2023-04-26T13:03:15.140Z,7.15
2023-04-26T13:05:42.524Z,7.00
2023-04-26T13:08:09.662Z,5.45
2023-04-26T13:10:37.482Z,6.32
2023-04-26T13:13:04.724Z,6.50
2023-04-26T13:15:31.877Z,5.28
2023-04-26T13:17:59.068Z,4.03
2023-04-26T13:20:27.275Z,3.83
2023-04-26T13:22:56.996Z,3.80
2023-04-26T13:25:24.185Z,3.05
2023-04-26T13:27:53.743Z,3.08
2023-04-26T13:30:21.092Z,1.70
2023-04-26T13:32:48.353Z,10.25
2023-04-26T13:35:15.938Z,4.38
2023-04-26T13:37:43.135Z,5.28
2023-04-26T13:40:11.463Z,2.20
2023-04-26T13:42:39.667Z,3.88
2023-04-26T13:45:10.445Z,5.03
2023-04-26T13:47:38.004Z,4.13
2023-04-26T13:50:05.752Z,9.52
2023-04-26T13:52:33.475Z,1.55
2023-04-26T13:55:01.071Z,2.67
2023-04-26T13:57:28.900Z,8.57
2023-04-26T13:59:56.133Z,3.45
2023-04-26T14:02:24.731Z,9.00
2023-04-26T14:04:52.361Z,4.82
2023-04-26T14:07:19.652Z,2.50
2023-04-26T14:09:47.960Z,5.05
2023-04-26T14:12:15.023Z,6.65
2023-04-26T14:14:42.105Z,3.83
2023-04-26T14:17:09.279Z,3.03
2023-04-26T14:19:36.386Z,5.10
2023-04-26T14:22:04.197Z,5.28
2023-04-26T14:24:31.371Z,7.72
2023-04-26T14:27:01.740Z,7.40
2023-04-26T14:29:28.845Z,2.33
2023-04-26T14:31:56.518Z,3.33
2023-04-26T14:34:24.339Z,6.60
2023-04-26T14:36:51.404Z,3.50
2023-04-26T14:39:18.412Z,7.70
2023-04-26T14:41:45.479Z,8.05
2023-04-26T14:44:12.584Z,8.45
2023-04-26T14:46:39.826Z,4.90
2023-04-26T14:49:07.375Z,7.40
2023-04-26T14:51:34.527Z,5.78
2023-04-26T14:54:01.979Z,1.48
2023-04-26T14:56:34.066Z,5.43
2023-04-26T14:59:01.820Z,4.75
2023-04-26T15:01:29.186Z,6.45
2023-04-26T15:03:59.321Z,3.50
2023-04-26T15:06:27.587Z,3.92
2023-04-26T15:08:54.763Z,2.83
2023-04-26T15:11:21.895Z,3.83
2023-04-26T15:13:48.969Z,5.82
2023-04-26T15:16:17.007Z,8.02
2023-04-26T15:18:44.334Z,6.60
2023-04-26T15:21:17.004Z,7.53
2023-04-26T15:23:44.080Z,4.88
2023-04-26T15:26:11.430Z,6.07
2023-04-26T15:28:38.689Z,6.85
2023-04-26T15:31:09.206Z,3.92
2023-04-26T15:33:36.549Z,7.05
2023-04-26T15:36:03.876Z,6.63
2023-04-26T15:38:32.281Z,4.90
2023-04-26T15:40:59.430Z,4.70
2023-04-26T15:43:26.998Z,5.05
2023-04-26T15:45:54.250Z,4.68
2023-04-26T15:48:21.386Z,6.05
2023-04-26T15:50:48.485Z,4.57
2023-04-26T15:53:16.408Z,4.65
2023-04-26T15:55:43.621Z,7.75
2023-04-26T15:58:11.408Z,2.42
2023-04-26T16:00:38.516Z,2.70
2023-04-26T16:03:05.735Z,4.82
2023-04-26T16:05:33.190Z,4.85
2023-04-26T16:08:00.761Z,9.25
2023-04-26T16:10:27.874Z,2.22
2023-04-26T16:12:55.056Z,5.80
2023-04-26T16:15:22.215Z,4.40
2023-04-26T16:17:49.306Z,4.32
2023-04-26T16:20:16.561Z,2.95
2023-04-26T16:22:45.074Z,6.65
2023-04-26T16:25:12.350Z,4.07
2023-04-26T16:27:39.498Z,5.50
2023-04-26T16:30:07.132Z,7.38
2023-04-26T16:32:34.523Z,7.43
2023-04-26T16:35:01.717Z,8.02
2023-04-26T16:37:28.933Z,11.75
2023-04-26T16:39:56.615Z,5.43
2023-04-26T16:42:23.973Z,8.23
2023-04-26T16:44:51.059Z,2.88
2023-04-26T16:47:18.197Z,6.10
2023-04-26T16:49:45.551Z,2.08
2023-04-26T16:52:12.700Z,2.35
2023-04-26T16:54:39.865Z,3.45
2023-04-26T16:57:07.291Z,1.65
2023-04-26T16:59:34.441Z,7.35
2023-04-26T17:02:01.840Z,9.88
2023-04-26T17:04:29.116Z,19.00
2023-04-26T17:06:56.388Z,12.23
2023-04-26T17:09:23.523Z,15.10
2023-04-26T17:11:51.108Z,17.65
2023-04-26T17:14:18.501Z,11.25
2023-04-26T17:16:45.657Z,21.45
2023-04-26T17:19:12.945Z,6.22
2023-04-26T17:21:40.109Z,7.68
2023-04-26T17:24:07.785Z,10.68
2023-04-26T17:26:35.083Z,10.30
2023-04-26T17:29:02.617Z,7.68
2023-04-26T17:31:29.751Z,15.13
2023-04-26T17:33:57.161Z,6.30
2023-04-26T17:36:24.238Z,9.18
2023-04-26T17:38:51.321Z,12.52
2023-04-26T17:41:18.498Z,5.40
2023-04-26T17:43:46.081Z,9.63
2023-04-26T17:46:13.274Z,9.38
2023-04-26T17:48:40.650Z,5.45
2023-04-26T17:51:07.869Z,4.57
2023-04-26T17:53:35.124Z,7.32
2023-04-26T17:56:07.085Z,5.57
2023-04-26T17:58:34.422Z,6.07
2023-04-26T18:01:01.699Z,2.58
2023-04-26T18:03:31.557Z,3.42
2023-04-26T18:05:59.098Z,8.25
2023-04-26T18:08:26.311Z,1.40
2023-04-26T18:10:54.249Z,5.55
2023-04-26T18:13:21.672Z,4.25
2023-04-26T18:15:49.037Z,3.63
2023-04-26T18:18:16.192Z,2.05
2023-04-26T18:20:43.590Z,3.00
2023-04-26T18:23:12.642Z,1.35
2023-04-26T18:25:39.721Z,2.67
2023-04-26T18:28:08.787Z,6.65
2023-04-26T18:30:35.968Z,4.03
2023-04-26T18:33:03.107Z,3.95
2023-04-26T18:35:31.306Z,2.50
2023-04-26T18:37:59.514Z,1.10
2023-04-26T18:40:26.669Z,1.98
2023-04-26T18:42:53.805Z,1.60
2023-04-26T18:45:21.076Z,3.05
2023-04-26T18:47:48.143Z,1.70
2023-04-26T18:50:18.022Z,1.85
2023-04-26T18:52:46.880Z,0.82
2023-04-26T18:55:14.000Z,3.15
2023-04-26T18:57:41.149Z,1.83
2023-04-26T19:00:08.902Z,0.80
2023-04-26T19:02:40.169Z,2.15
2023-04-26T19:05:08.510Z,0.73
2023-04-26T19:07:36.140Z,1.13
2023-04-26T19:10:04.408Z,1.25
2023-04-26T19:12:31.596Z,2.28
2023-04-26T19:15:02.066Z,3.25
2023-04-26T19:17:29.709Z,1.95
2023-04-26T19:19:56.955Z,2.60
2023-04-26T19:22:24.100Z,2.00
2023-04-26T19:24:51.650Z,1.10
2023-04-26T19:27:18.795Z,3.50
2023-04-26T19:29:45.855Z,1.55
2023-04-26T19:32:13.239Z,2.63
2023-04-26T19:34:40.950Z,0.73
2023-04-26T19:37:08.000Z,1.35
2023-04-26T19:39:35.084Z,0.65
2023-04-26T19:42:03.415Z,1.50
2023-04-26T19:44:30.627Z,2.95
2023-04-26T19:46:58.292Z,1.40
2023-04-26T19:49:27.845Z,3.63
2023-04-26T19:51:56.114Z,1.40
2023-04-26T19:54:23.313Z,0.82
2023-04-26T19:56:50.441Z,1.42
2023-04-26T19:59:17.521Z,1.42
2023-04-26T20:01:44.654Z,2.22
2023-04-26T20:04:11.991Z,3.30
2023-04-26T20:06:39.132Z,2.05
2023-04-26T20:09:07.281Z,1.20
2023-04-26T20:11:34.688Z,2.22
2023-04-26T20:14:01.807Z,3.53
2023-04-26T20:16:28.947Z,2.80
2023-04-26T20:18:56.046Z,1.30
2023-04-26T20:21:23.210Z,2.00
2023-04-26T20:23:50.255Z,3.13
2023-04-26T20:26:17.334Z,1.52
2023-04-26T20:28:45.594Z,2.60
2023-04-26T20:31:12.637Z,2.88
2023-04-26T20:33:39.764Z,1.95
2023-04-26T20:36:07.005Z,4.03
2023-04-26T20:38:34.070Z,1.42
2023-04-26T20:41:01.151Z,3.80
2023-04-26T20:43:28.705Z,2.15
2023-04-26T20:45:56.014Z,1.92
2023-04-26T20:48:24.260Z,3.97
2023-04-26T20:50:54.445Z,1.27
2023-04-26T20:53:21.567Z,2.08
2023-04-26T20:55:51.464Z,1.50
2023-04-26T20:58:18.579Z,2.58
2023-04-26T21:00:45.627Z,3.35
2023-04-26T21:03:12.986Z,3.63
2023-04-26T21:05:40.119Z,2.47
2023-04-26T21:08:07.517Z,3.25
2023-04-26T21:10:34.599Z,4.35
2023-04-26T21:13:01.794Z,1.80
2023-04-26T21:15:28.968Z,3.25
2023-04-26T21:17:56.175Z,4.05
2023-04-26T21:20:23.286Z,3.15
2023-04-26T21:22:50.466Z,2.60
2023-04-26T21:25:19.825Z,2.33
2023-04-26T21:27:47.032Z,2.78
2023-04-26T21:30:14.437Z,3.67
2023-04-26T21:32:42.003Z,4.10
2023-04-26T21:35:11.085Z,2.45
2023-04-26T21:37:38.327Z,3.22
2023-04-26T21:40:06.729Z,2.33
2023-04-26T21:42:33.921Z,3.50
2023-04-26T21:45:01.069Z,3.45
2023-04-26T21:47:28.188Z,2.00
2023-04-26T21:49:55.321Z,3.08
2023-04-26T21:52:22.380Z,3.08
2023-04-26T21:54:50.642Z,3.95
2023-04-26T21:57:21.657Z,2.92
2023-04-26T21:59:48.682Z,3.60
2023-04-26T22:02:15.984Z,5.15
2023-04-26T22:04:43.118Z,3.10
2023-04-26T22:07:10.127Z,3.45
2023-04-26T22:09:37.231Z,4.00
2023-04-26T22:12:04.569Z,4.05
2023-04-26T22:14:31.753Z,2.95
2023-04-26T22:16:58.808Z,2.40
2023-04-26T22:19:26.583Z,4.47
2023-04-26T22:21:56.020Z,3.85
2023-04-26T22:24:23.437Z,3.55
2023-04-26T22:26:50.788Z,2.90
2023-04-26T22:29:17.830Z,3.22
2023-04-26T22:31:44.900Z,2.67
2023-04-26T22:34:12.016Z,5.53
2023-04-26T22:36:39.870Z,2.92
2023-04-26T22:39:07.205Z,3.38
2023-04-26T22:41:34.321Z,2.58
2023-04-26T22:44:01.411Z,3.15
2023-04-26T22:46:28.530Z,3.28
2023-04-26T22:48:55.696Z,3.25
2023-04-26T22:51:22.897Z,3.55
2023-04-26T22:53:50.098Z,5.63
2023-04-26T22:56:17.194Z,3.17
2023-04-26T22:58:44.291Z,4.10
2023-04-26T23:01:11.517Z,4.05
2023-04-26T23:03:38.747Z,3.85
2023-04-26T23:06:06.523Z,3.00
2023-04-26T23:08:33.590Z,4.13
2023-04-26T23:11:00.851Z,3.35
2023-04-26T23:13:29.665Z,3.17
2023-04-26T23:15:57.172Z,2.60
2023-04-26T23:18:26.784Z,2.67
2023-04-26T23:20:53.949Z,3.08
2023-04-26T23:23:21.059Z,3.60
2023-04-26T23:25:48.118Z,3.42
2023-04-26T23:28:15.124Z,3.42
2023-04-26T23:30:42.233Z,2.75
2023-04-26T23:33:09.360Z,3.05
2023-04-26T23:35:41.471Z,2.10
2023-04-26T23:38:08.620Z,4.95
2023-04-26T23:40:37.359Z,3.03
2023-04-26T23:43:06.275Z,2.58
2023-04-26T23:45:33.575Z,2.45
2023-04-26T23:48:01.108Z,2.10
2023-04-26T23:50:28.291Z,3.50
2023-04-26T23:52:55.378Z,2.22
2023-04-26T23:55:23.059Z,3.25
2023-04-26T23:57:50.114Z,2.92
